Time;durP1;ratioP1;P1;durP2;ratioP2;P2;SDS_P1;SDS_P2;PMS_P1;PMS_P2;Temp;Humidity;BMP_temperature;BMP_pressure;BME280_temperature;BME280_humidity;BME280_pressure;Samples;Min_cycle;Max_cycle;Signal;HPM_P1;HPM_P2
2021/12/01 00:00:03;;;;;;;17.33;9.43;;;;;;;;;;5013947;28;93401;-65
2021/12/01 00:02:29;;;;;;;15.15;8.88;;;;;;;;;;5012708;28;94719;-65
2021/12/01 00:04:56;;;;;;;17.92;10.57;;;;;;;;;;5014475;28;94201;-65
2021/12/01 00:07:22;;;;;;;16.25;10.38;;;;;;;;;;5012795;28;93558;-65
2021/12/01 00:09:48;;;;;;;18.30;10.35;;;;;;;;;;5012247;28;92350;-65
2021/12/01 00:12:14;;;;;;;16.27;10.00;;;;;;;;;;5013177;28;92434;-65
2021/12/01 00:14:41;;;;;;;17.85;11.52;;;;;;;;;;5011444;28;93487;-65
2021/12/01 00:17:11;;;;;;;15.73;10.68;;;;;;;;;;5006453;28;93237;-65
2021/12/01 00:19:37;;;;;;;15.57;11.20;;;;;;;;;;5012612;28;91717;-65
2021/12/01 00:22:04;;;;;;;16.45;10.57;;;;;;;;;;5012165;28;92452;-65
2021/12/01 00:24:30;;;;;;;14.57;10.32;;;;;;;;;;5013723;28;92758;-65
2021/12/01 00:26:56;;;;;;;16.95;10.27;;;;;;;;;;5010878;28;94777;-65
2021/12/01 00:29:22;;;;;;;13.55;10.82;;;;;;;;;;5014129;28;92474;-65
2021/12/01 00:31:49;;;;;;;17.00;10.15;;;;;;;;;;5012889;28;92357;-65
2021/12/01 00:34:16;;;;;;;12.10;9.77;;;;;;;;;;5043582;27;93241;-65
2021/12/01 00:36:42;;;;;;;11.05;9.68;;;;;;;;;;5010400;28;92442;-64
2021/12/01 00:39:08;;;;;;;19.25;10.00;;;;;;;;;;5014083;28;92371;-64
2021/12/01 00:41:35;;;;;;;13.18;10.00;;;;;;;;;;5013445;28;92371;-64
2021/12/01 00:44:01;;;;;;;14.15;9.70;;;;;;;;;;5013396;28;95937;-64
2021/12/01 00:46:40;;;;;;;14.10;8.95;;;;;;;;;;5012552;28;92223;-64
2021/12/01 00:49:07;;;;;;;13.10;9.83;;;;;;;;;;5012410;28;92310;-64
2021/12/01 00:51:34;;;;;;;13.32;9.20;;;;;;;;;;5004491;28;94763;-65
2021/12/01 00:54:00;;;;;;;14.73;9.10;;;;;;;;;;4994279;28;92327;-65
2021/12/01 00:56:26;;;;;;;15.00;9.25;;;;;;;;;;5001599;28;92564;-65
2021/12/01 00:58:53;;;;;;;12.30;8.73;;;;;;;;;;5016418;28;92396;-65
2021/12/01 01:01:19;;;;;;;14.93;8.93;;;;;;;;;;5011914;28;92544;-65
2021/12/01 01:03:46;;;;;;;17.02;8.88;;;;;;;;;;5013530;28;94463;-65
2021/12/01 01:06:12;;;;;;;14.60;9.13;;;;;;;;;;5013283;28;94449;-65
2021/12/01 01:08:38;;;;;;;15.85;9.38;;;;;;;;;;5014205;28;91760;-65
2021/12/01 01:16:24;;;;;;;13.65;8.10;;;;;;;;;;5012620;28;94886;-65
2021/12/01 01:18:50;;;;;;;11.73;7.32;;;;;;;;;;5016235;28;94066;-65
2021/12/01 01:21:17;;;;;;;10.13;6.90;;;;;;;;;;5013949;28;92485;-64
2021/12/01 01:23:44;;;;;;;10.55;6.70;;;;;;;;;;5017288;28;93309;-64
2021/12/01 01:26:12;;;;;;;11.38;7.78;;;;;;;;;;5017074;28;93317;-64
2021/12/01 01:28:39;;;;;;;9.90;6.07;;;;;;;;;;5016870;28;92378;-64
2021/12/01 01:31:05;;;;;;;11.52;7.05;;;;;;;;;;5017634;28;92383;-64
2021/12/01 01:33:32;;;;;;;9.48;6.57;;;;;;;;;;5017570;28;92600;-64
2021/12/01 01:35:58;;;;;;;11.00;6.75;;;;;;;;;;5016023;28;92723;-64
2021/12/01 01:38:25;;;;;;;11.60;7.07;;;;;;;;;;5016557;28;93177;-64
2021/12/01 01:40:51;;;;;;;13.00;6.00;;;;;;;;;;5017498;28;96153;-64
2021/12/01 01:43:17;;;;;;;12.93;6.22;;;;;;;;;;5016392;28;95618;-64
2021/12/01 01:45:45;;;;;;;10.35;6.13;;;;;;;;;;5017081;28;93299;-64
2021/12/01 01:48:13;;;;;;;11.65;6.57;;;;;;;;;;5017058;28;92597;-64
2021/12/01 01:50:41;;;;;;;10.88;5.65;;;;;;;;;;5015171;28;92387;-64
2021/12/01 01:53:21;;;;;;;11.68;5.50;;;;;;;;;;5014982;28;93586;-65
2021/12/01 01:55:49;;;;;;;8.77;5.40;;;;;;;;;;5015157;28;92445;-65
2021/12/01 01:58:16;;;;;;;9.55;5.38;;;;;;;;;;5016830;28;94142;-65
2021/12/01 02:01:01;;;;;;;9.98;5.65;;;;;;;;;;5015747;28;92752;-65
2021/12/01 02:03:28;;;;;;;9.10;5.50;;;;;;;;;;5015454;28;92418;-65
2021/12/01 02:05:56;;;;;;;5.68;4.40;;;;;;;;;;5014237;28;94957;-65
2021/12/01 02:08:29;;;;;;;8.75;4.85;;;;;;;;;;5016148;28;92387;-65
2021/12/01 02:10:57;;;;;;;6.70;4.55;;;;;;;;;;5006260;28;92408;-65
2021/12/01 02:13:23;;;;;;;9.98;4.28;;;;;;;;;;5015062;28;93443;-65
2021/12/01 02:15:50;;;;;;;4.90;3.60;;;;;;;;;;5016115;28;92430;-65
2021/12/01 02:18:17;;;;;;;4.20;2.85;;;;;;;;;;5016054;28;92297;-65
2021/12/01 02:20:56;;;;;;;3.08;2.75;;;;;;;;;;5014012;28;92401;-65
2021/12/01 02:23:23;;;;;;;4.15;2.38;;;;;;;;;;5016104;28;92004;-65
2021/12/01 02:25:49;;;;;;;4.07;2.22;;;;;;;;;;5018726;28;92475;-65
2021/12/01 02:28:16;;;;;;;2.63;2.42;;;;;;;;;;5014841;28;92464;-64
2021/12/01 02:30:42;;;;;;;2.10;1.98;;;;;;;;;;5014133;28;95179;-64
2021/12/01 02:33:08;;;;;;;2.35;2.17;;;;;;;;;;5014099;28;92445;-64
2021/12/01 02:35:34;;;;;;;2.00;1.90;;;;;;;;;;5012639;28;92676;-64
2021/12/01 02:38:04;;;;;;;2.00;1.90;;;;;;;;;;5015967;28;92383;-64
2021/12/01 02:40:31;;;;;;;2.05;1.80;;;;;;;;;;5015686;28;93211;-64
2021/12/01 02:42:57;;;;;;;2.58;2.05;;;;;;;;;;4996367;28;92402;-64
2021/12/01 02:45:23;;;;;;;2.00;1.90;;;;;;;;;;5014412;28;92387;-64
2021/12/01 02:47:49;;;;;;;3.42;2.03;;;;;;;;;;5018693;28;91652;-64
2021/12/01 02:50:16;;;;;;;2.10;2.00;;;;;;;;;;5015181;28;92402;-64
2021/12/01 02:52:42;;;;;;;1.95;1.85;;;;;;;;;;5015923;28;93207;-64
2021/12/01 02:55:10;;;;;;;2.53;2.30;;;;;;;;;;5013481;28;94854;-64
2021/12/01 02:57:40;;;;;;;2.03;1.92;;;;;;;;;;5015212;28;95469;-64
2021/12/01 03:00:07;;;;;;;3.92;2.47;;;;;;;;;;5001526;28;93208;-64
2021/12/01 03:02:33;;;;;;;3.03;2.58;;;;;;;;;;5015244;28;92355;-64
2021/12/01 03:05:00;;;;;;;6.65;2.83;;;;;;;;;;5015357;28;92367;-64
2021/12/01 03:07:26;;;;;;;3.10;2.85;;;;;;;;;;5015260;28;92445;-64
2021/12/01 03:09:53;;;;;;;3.45;2.92;;;;;;;;;;5017581;28;92383;-64
2021/12/01 03:12:19;;;;;;;3.30;3.00;;;;;;;;;;5015506;28;93695;-64
2021/12/01 03:14:45;;;;;;;3.50;3.22;;;;;;;;;;5015067;28;92387;-65
2021/12/01 03:17:11;;;;;;;2.70;2.50;;;;;;;;;;5015610;28;94245;-65
2021/12/01 03:19:38;;;;;;;2.72;2.53;;;;;;;;;;5013195;28;94714;-65
2021/12/01 03:22:04;;;;;;;2.80;2.50;;;;;;;;;;5014869;28;92507;-65
2021/12/01 03:24:33;;;;;;;3.38;2.55;;;;;;;;;;5014805;28;93207;-65
2021/12/01 03:26:59;;;;;;;2.13;2.03;;;;;;;;;;5014807;28;93468;-65
2021/12/01 03:29:25;;;;;;;3.55;2.60;;;;;;;;;;5018040;28;92455;-65
2021/12/01 03:31:52;;;;;;;2.42;2.25;;;;;;;;;;5014562;28;93508;-65
2021/12/01 03:34:20;;;;;;;2.30;2.17;;;;;;;;;;5015447;28;92306;-65
2021/12/01 03:36:47;;;;;;;2.53;2.33;;;;;;;;;;5014883;28;91956;-65
2021/12/01 03:39:13;;;;;;;2.40;2.20;;;;;;;;;;5014562;28;92422;-65
2021/12/01 03:41:40;;;;;;;2.50;2.30;;;;;;;;;;5014867;28;92319;-65
2021/12/01 03:44:07;;;;;;;2.33;2.13;;;;;;;;;;5012608;28;94846;-65
2021/12/01 03:46:33;;;;;;;2.75;2.42;;;;;;;;;;5014603;28;93353;-65
2021/12/01 03:48:59;;;;;;;3.30;2.60;;;;;;;;;;5014434;28;92459;-65
2021/12/01 03:51:26;;;;;;;2.88;2.35;;;;;;;;;;5017370;28;93338;-65
2021/12/01 03:53:52;;;;;;;3.85;2.65;;;;;;;;;;5013365;28;92507;-65
2021/12/01 03:56:21;;;;;;;2.60;2.40;;;;;;;;;;5013758;28;93100;-64
2021/12/01 03:58:47;;;;;;;2.58;2.20;;;;;;;;;;5014053;28;92469;-64
2021/12/01 04:01:14;;;;;;;2.17;2.08;;;;;;;;;;5015148;28;91798;-64
2021/12/01 04:03:41;;;;;;;2.50;2.30;;;;;;;;;;5015070;28;92413;-64
2021/12/01 04:06:07;;;;;;;2.63;1.75;;;;;;;;;;5014521;28;93376;-64
2021/12/01 04:08:34;;;;;;;2.30;1.85;;;;;;;;;;5013821;28;94750;-64
2021/12/01 04:11:00;;;;;;;5.18;1.95;;;;;;;;;;5013611;28;94223;-64
2021/12/01 04:13:27;;;;;;;3.40;1.90;;;;;;;;;;5016866;28;93431;-65
2021/12/01 04:15:53;;;;;;;1.90;1.80;;;;;;;;;;5014103;28;92708;-65
2021/12/01 04:18:19;;;;;;;4.22;2.55;;;;;;;;;;5013908;28;94297;-65
2021/12/01 04:20:46;;;;;;;2.42;2.30;;;;;;;;;;5014162;28;92296;-65
2021/12/01 04:23:12;;;;;;;2.90;2.33;;;;;;;;;;5014744;28;93204;-65
2021/12/01 04:25:39;;;;;;;2.50;2.20;;;;;;;;;;5014062;28;92587;-65
2021/12/01 04:28:05;;;;;;;2.75;2.55;;;;;;;;;;5014497;28;92496;-65
2021/12/01 04:30:32;;;;;;;3.60;3.30;;;;;;;;;;5014661;28;92443;-65
2021/12/01 04:32:59;;;;;;;4.30;3.75;;;;;;;;;;5012164;28;95818;-65
2021/12/01 04:35:27;;;;;;;4.38;4.07;;;;;;;;;;5017094;28;92306;-65
2021/12/01 04:37:54;;;;;;;4.30;4.00;;;;;;;;;;5009681;28;93648;-65
2021/12/01 04:40:20;;;;;;;5.07;4.57;;;;;;;;;;5012191;28;92728;-65
2021/12/01 04:42:47;;;;;;;4.28;3.97;;;;;;;;;;5013867;28;92809;-65
2021/12/01 04:45:14;;;;;;;4.20;3.90;;;;;;;;;;5013783;28;93466;-65
2021/12/01 04:47:42;;;;;;;3.50;3.30;;;;;;;;;;5014015;28;92377;-65
2021/12/01 04:50:09;;;;;;;4.20;3.45;;;;;;;;;;5013293;28;91933;-65
2021/12/01 04:52:35;;;;;;;3.63;3.33;;;;;;;;;;5014033;28;93266;-65
2021/12/01 04:55:02;;;;;;;2.88;2.67;;;;;;;;;;5012486;28;92646;-65
2021/12/01 04:57:28;;;;;;;3.35;2.80;;;;;;;;;;5018662;28;94672;-65
2021/12/01 04:59:55;;;;;;;2.90;2.63;;;;;;;;;;5016854;28;92407;-65
2021/12/01 05:02:21;;;;;;;2.72;2.53;;;;;;;;;;5017245;28;92307;-65
2021/12/01 05:04:48;;;;;;;3.45;3.00;;;;;;;;;;5017583;28;92452;-65
2021/12/01 05:07:14;;;;;;;2.72;2.53;;;;;;;;;;5017159;28;92409;-65
2021/12/01 05:09:41;;;;;;;3.03;2.67;;;;;;;;;;5017490;28;93271;-65
2021/12/01 05:12:07;;;;;;;6.28;2.80;;;;;;;;;;5016979;28;94890;-65
2021/12/01 05:14:35;;;;;;;6.85;2.10;;;;;;;;;;5018270;28;91722;-65
2021/12/01 05:17:02;;;;;;;2.20;2.10;;;;;;;;;;5016970;28;92761;-65
2021/12/01 05:19:28;;;;;;;3.05;2.63;;;;;;;;;;5019654;28;92378;-65
2021/12/01 05:21:55;;;;;;;3.90;2.40;;;;;;;;;;5014884;28;94694;-65
2021/12/01 05:24:21;;;;;;;3.33;2.85;;;;;;;;;;5017276;28;93382;-65
2021/12/01 05:26:47;;;;;;;2.97;2.55;;;;;;;;;;5016931;28;92336;-65
2021/12/01 05:29:16;;;;;;;2.90;2.70;;;;;;;;;;5017557;28;93027;-65
2021/12/01 05:31:42;;;;;;;2.78;2.55;;;;;;;;;;5016610;28;93512;-65
2021/12/01 05:34:09;;;;;;;2.95;2.63;;;;;;;;;;5016952;28;92449;-65
2021/12/01 05:36:35;;;;;;;5.75;2.50;;;;;;;;;;5016040;28;92973;-65
2021/12/01 05:39:02;;;;;;;2.80;2.60;;;;;;;;;;5020417;28;92722;-65
2021/12/01 05:41:28;;;;;;;2.70;2.50;;;;;;;;;;5016511;28;93232;-65
2021/12/01 05:43:54;;;;;;;3.10;2.80;;;;;;;;;;5015652;28;92609;-65
2021/12/01 05:46:21;;;;;;;6.78;2.75;;;;;;;;;;5013347;28;94871;-65
2021/12/01 05:48:51;;;;;;;2.80;2.60;;;;;;;;;;5016455;28;94506;-65
2021/12/01 05:51:18;;;;;;;2.72;2.58;;;;;;;;;;5016324;28;93305;-65
2021/12/01 05:53:45;;;;;;;2.80;2.60;;;;;;;;;;5016082;28;92491;-65
2021/12/01 05:56:11;;;;;;;2.92;2.72;;;;;;;;;;5016558;28;92979;-65
2021/12/01 05:58:38;;;;;;;3.17;2.97;;;;;;;;;;5016552;28;96823;-65
2021/12/01 06:01:04;;;;;;;3.55;3.25;;;;;;;;;;5019681;28;92742;-65
2021/12/01 06:03:30;;;;;;;3.03;2.75;;;;;;;;;;5015456;28;91717;-65
2021/12/01 06:05:57;;;;;;;3.58;3.22;;;;;;;;;;5016191;28;92528;-65
2021/12/01 06:08:23;;;;;;;3.25;3.05;;;;;;;;;;5016709;28;92292;-65
2021/12/01 06:10:50;;;;;;;3.60;3.40;;;;;;;;;;5014042;28;94977;-65
2021/12/01 06:13:17;;;;;;;4.82;3.72;;;;;;;;;;5016178;28;92352;-64
2021/12/01 06:15:47;;;;;;;;;;;;;;;;;;5016845;28;93633;-64
2021/12/01 06:18:13;;;;;;;4.15;3.65;;;;;;;;;;5016614;28;122914;-64
2021/12/01 06:20:39;;;;;;;4.03;3.67;;;;;;;;;;5015509;28;92746;-64
2021/12/01 06:23:06;;;;;;;3.90;3.60;;;;;;;;;;5019377;28;92426;-64
2021/12/01 06:25:32;;;;;;;3.63;3.42;;;;;;;;;;5015871;28;92362;-64
2021/12/01 06:27:59;;;;;;;4.10;3.70;;;;;;;;;;5016466;28;92206;-64
2021/12/01 06:30:26;;;;;;;4.60;3.90;;;;;;;;;;5015621;28;94766;-64
2021/12/01 06:32:53;;;;;;;4.80;4.18;;;;;;;;;;5015620;28;92365;-64
2021/12/01 06:35:19;;;;;;;3.88;3.53;;;;;;;;;;5014269;28;95372;-64
2021/12/01 06:37:46;;;;;;;5.07;4.20;;;;;;;;;;5012049;28;92449;-64
2021/12/01 06:40:13;;;;;;;4.28;3.88;;;;;;;;;;5012103;28;92081;-64
2021/12/01 06:42:39;;;;;;;4.40;4.00;;;;;;;;;;4994667;28;92461;-64
2021/12/01 06:45:06;;;;;;;4.60;4.20;;;;;;;;;;4999470;28;92403;-64
2021/12/01 06:47:33;;;;;;;4.97;4.55;;;;;;;;;;5015551;28;92420;-64
2021/12/01 06:49:59;;;;;;;3.67;3.47;;;;;;;;;;5015364;28;92260;-64
2021/12/01 06:52:28;;;;;;;4.30;4.00;;;;;;;;;;5016281;28;91634;-64
2021/12/01 06:54:55;;;;;;;4.75;4.35;;;;;;;;;;5015309;28;92520;-64
2021/12/01 06:57:21;;;;;;;4.10;3.80;;;;;;;;;;5015364;28;94054;-64
2021/12/01 06:59:47;;;;;;;4.85;4.45;;;;;;;;;;5002025;28;94830;-64
2021/12/01 07:02:14;;;;;;;6.88;5.43;;;;;;;;;;5012408;28;94010;-64
2021/12/01 07:04:40;;;;;;;4.43;4.05;;;;;;;;;;5014617;28;93696;-64
2021/12/01 07:07:06;;;;;;;4.75;4.28;;;;;;;;;;5019034;28;92389;-65
2021/12/01 07:09:32;;;;;;;4.25;3.95;;;;;;;;;;5014941;28;93471;-65
2021/12/01 07:11:59;;;;;;;4.20;3.85;;;;;;;;;;5014940;28;92340;-65
2021/12/01 07:14:25;;;;;;;6.13;4.40;;;;;;;;;;5014784;28;92298;-65
2021/12/01 07:16:51;;;;;;;4.43;4.13;;;;;;;;;;5015301;28;92802;-65
2021/12/01 07:19:18;;;;;;;5.13;4.32;;;;;;;;;;5007169;28;92403;-65
2021/12/01 07:21:44;;;;;;;4.35;3.95;;;;;;;;;;5014035;28;92783;-65
2021/12/01 07:24:10;;;;;;;4.15;3.70;;;;;;;;;;5013602;28;96199;-65
2021/12/01 07:26:37;;;;;;;5.15;4.22;;;;;;;;;;5014616;28;92547;-65
2021/12/01 07:29:03;;;;;;;5.50;3.88;;;;;;;;;;5017718;28;93013;-67
2021/12/01 07:31:30;;;;;;;5.60;3.80;;;;;;;;;;5015580;28;92556;-66
2021/12/01 07:33:56;;;;;;;3.97;3.20;;;;;;;;;;5014836;28;94354;-66
2021/12/01 07:36:23;;;;;;;4.18;3.63;;;;;;;;;;5014446;28;92482;-66
2021/12/01 07:38:53;;;;;;;4.15;3.38;;;;;;;;;;5014817;28;92378;-66
2021/12/01 07:41:20;;;;;;;3.53;3.22;;;;;;;;;;5015620;28;91845;-66
2021/12/01 07:43:47;;;;;;;5.32;3.70;;;;;;;;;;5014845;28;96257;-66
2021/12/01 07:46:14;;;;;;;6.90;3.55;;;;;;;;;;5015016;28;92441;-66
2021/12/01 07:48:40;;;;;;;6.75;3.65;;;;;;;;;;5016114;28;94816;-66
2021/12/01 07:51:06;;;;;;;8.15;4.30;;;;;;;;;;5014351;28;92428;-66
2021/12/01 07:53:33;;;;;;;5.07;4.10;;;;;;;;;;5014163;28;94256;-66
2021/12/01 07:56:02;;;;;;;8.25;3.78;;;;;;;;;;5010017;28;96850;-66
2021/12/01 07:58:29;;;;;;;6.70;4.18;;;;;;;;;;5013554;28;92424;-66
2021/12/01 08:00:55;;;;;;;7.05;4.30;;;;;;;;;;5001388;28;92514;-66
2021/12/01 08:03:21;;;;;;;9.70;4.40;;;;;;;;;;5014486;28;94664;-66
2021/12/01 08:05:49;;;;;;;7.47;4.10;;;;;;;;;;5014928;28;91668;-66
2021/12/01 08:08:15;;;;;;;8.43;4.10;;;;;;;;;;5013359;28;92422;-66
2021/12/01 08:10:41;;;;;;;6.05;3.70;;;;;;;;;;5016489;28;93498;-66
2021/12/01 08:13:09;;;;;;;8.50;3.88;;;;;;;;;;5012949;28;94765;-66
2021/12/01 08:15:47;;;;;;;8.35;3.97;;;;;;;;;;5013384;28;93441;-66
2021/12/01 08:18:14;;;;;;;7.05;4.18;;;;;;;;;;5014373;28;92506;-66
2021/12/01 08:20:40;;;;;;;10.88;4.10;;;;;;;;;;5014980;28;92376;-66
2021/12/01 08:23:07;;;;;;;7.40;3.80;;;;;;;;;;5014691;28;92367;-66
2021/12/01 08:25:33;;;;;;;7.22;3.25;;;;;;;;;;5014336;28;92383;-66
2021/12/01 08:28:01;;;;;;;7.10;3.65;;;;;;;;;;5014731;28;92332;-66
2021/12/01 08:30:28;;;;;;;5.90;3.20;;;;;;;;;;5015058;28;91510;-66
2021/12/01 08:32:55;;;;;;;8.93;3.75;;;;;;;;;;5019244;28;92460;-66
2021/12/01 08:35:22;;;;;;;10.02;3.22;;;;;;;;;;4997998;28;92393;-66
2021/12/01 08:37:48;;;;;;;12.32;3.45;;;;;;;;;;4996246;28;94831;-66
2021/12/01 08:40:16;;;;;;;7.40;3.50;;;;;;;;;;5001080;28;95572;-66
2021/12/01 08:42:44;;;;;;;11.90;3.83;;;;;;;;;;5016324;28;93598;-65
2021/12/01 08:45:11;;;;;;;5.47;2.67;;;;;;;;;;5017709;28;92545;-65
2021/12/01 08:47:37;;;;;;;12.70;2.97;;;;;;;;;;5017407;28;93010;-66
2021/12/01 08:50:07;;;;;;;8.45;2.58;;;;;;;;;;5016402;28;93356;-66
2021/12/01 08:52:34;;;;;;;8.90;2.75;;;;;;;;;;5017187;28;92427;-66
2021/12/01 08:55:00;;;;;;;10.38;2.33;;;;;;;;;;5020729;28;92248;-66
2021/12/01 08:57:26;;;;;;;17.48;2.40;;;;;;;;;;5017837;28;92378;-66
2021/12/01 08:59:52;;;;;;;12.10;2.17;;;;;;;;;;5006149;28;93262;-66
2021/12/01 09:02:19;;;;;;;16.15;2.33;;;;;;;;;;5015348;28;94847;-66
2021/12/01 09:04:49;;;;;;;7.00;2.13;;;;;;;;;;5017667;28;92388;-66
2021/12/01 09:07:19;;;;;;;8.20;1.77;;;;;;;;;;5017166;28;93147;-66
2021/12/01 09:09:46;;;;;;;16.80;2.10;;;;;;;;;;4997408;28;92476;-66
2021/12/01 09:12:14;;;;;;;16.85;2.13;;;;;;;;;;5012183;28;92427;-66
2021/12/01 09:14:41;;;;;;;11.18;1.73;;;;;;;;;;5017418;28;93391;-66
2021/12/01 09:17:09;;;;;;;13.63;1.50;;;;;;;;;;5021016;28;94584;-65
2021/12/01 09:19:36;;;;;;;11.07;1.73;;;;;;;;;;5017648;28;92924;-65
2021/12/01 09:22:02;;;;;;;16.50;1.80;;;;;;;;;;5016206;28;93680;-65
2021/12/01 09:24:28;;;;;;;11.75;1.63;;;;;;;;;;5017418;28;92391;-65
2021/12/01 09:26:56;;;;;;;9.75;1.67;;;;;;;;;;5015752;28;94870;-65
2021/12/01 09:29:22;;;;;;;7.95;1.55;;;;;;;;;;5015688;28;93639;-65
2021/12/01 09:31:49;;;;;;;7.90;1.40;;;;;;;;;;5016994;28;92397;-65
2021/12/01 09:34:15;;;;;;;11.32;1.40;;;;;;;;;;5017219;28;94272;-65
2021/12/01 09:36:41;;;;;;;12.25;2.45;;;;;;;;;;5016838;28;92367;-66
2021/12/01 09:39:08;;;;;;;13.57;2.08;;;;;;;;;;5020011;28;92359;-66
2021/12/01 09:41:34;;;;;;;4.18;1.70;;;;;;;;;;5016542;28;92404;-66
2021/12/01 09:44:01;;;;;;;9.43;1.50;;;;;;;;;;5017805;28;91631;-65
2021/12/01 09:46:30;;;;;;;12.15;1.70;;;;;;;;;;5008292;28;92752;-65
2021/12/01 09:48:57;;;;;;;9.02;1.60;;;;;;;;;;5012006;28;93536;-65
2021/12/01 09:51:23;;;;;;;11.15;1.92;;;;;;;;;;5015286;28;94800;-65
2021/12/01 09:53:50;;;;;;;9.25;1.40;;;;;;;;;;5015873;28;96967;-65
2021/12/01 09:56:16;;;;;;;6.68;1.85;;;;;;;;;;5015648;28;93740;-65
2021/12/01 09:58:43;;;;;;;5.50;0.93;;;;;;;;;;5019413;28;92535;-66
2021/12/01 10:01:12;;;;;;;6.15;1.25;;;;;;;;;;4999728;28;93578;-64
2021/12/01 10:03:40;;;;;;;10.70;1.38;;;;;;;;;;5016247;28;92683;-65
2021/12/01 10:06:13;;;;;;;7.38;1.25;;;;;;;;;;5017322;28;93437;-67
2021/12/01 10:08:41;;;;;;;9.80;1.08;;;;;;;;;;5016871;28;92914;-66
2021/12/01 10:11:11;;;;;;;7.88;1.15;;;;;;;;;;5016383;28;92486;-65
2021/12/01 10:13:39;;;;;;;9.13;1.75;;;;;;;;;;5015241;28;92390;-65
2021/12/01 10:16:07;;;;;;;9.13;1.20;;;;;;;;;;5014955;28;95790;-64
2021/12/01 10:18:35;;;;;;;10.27;1.38;;;;;;;;;;5016670;28;92479;-65
2021/12/01 10:21:06;;;;;;;4.20;1.00;;;;;;;;;;5018944;28;92484;-65
2021/12/01 10:23:33;;;;;;;8.90;1.63;;;;;;;;;;5016766;28;92323;-65
2021/12/01 10:26:18;;;;;;;7.47;1.42;;;;;;;;;;5016279;28;94097;-65
2021/12/01 10:28:48;;;;;;;10.98;1.58;;;;;;;;;;5015946;28;92592;-65
2021/12/01 10:31:32;;;;;;;6.25;1.33;;;;;;;;;;5016849;28;92268;-66
2021/12/01 10:34:13;;;;;;;8.48;1.33;;;;;;;;;;5016887;28;94167;-66
2021/12/01 10:36:40;;;;;;;4.72;1.10;;;;;;;;;;5015511;28;92141;-66
2021/12/01 10:39:06;;;;;;;14.25;2.03;;;;;;;;;;5016099;28;92299;-66
2021/12/01 10:41:36;;;;;;;15.93;3.03;;;;;;;;;;5014303;28;94864;-66
2021/12/01 10:44:13;;;;;;;19.35;2.33;;;;;;;;;;5018917;28;92554;-66
2021/12/01 10:46:47;;;;;;;8.18;1.77;;;;;;;;;;5012150;28;92454;-65
2021/12/01 10:49:14;;;;;;;10.07;1.50;;;;;;;;;;5013214;28;93712;-65
2021/12/01 10:51:41;;;;;;;11.43;1.60;;;;;;;;;;5016276;28;92355;-65
2021/12/01 10:54:18;;;;;;;15.18;1.73;;;;;;;;;;5014421;28;92440;-66
2021/12/01 10:56:46;;;;;;;14.82;2.25;;;;;;;;;;5015476;28;92256;-66
2021/12/01 10:59:14;;;;;;;10.35;1.77;;;;;;;;;;5009022;28;91774;-66
2021/12/01 11:01:40;;;;;;;9.85;1.55;;;;;;;;;;4995524;28;92477;-66
2021/12/01 11:04:07;;;;;;;15.95;2.20;;;;;;;;;;5013050;28;92426;-66
2021/12/01 11:06:41;;;;;;;9.52;1.50;;;;;;;;;;5016928;28;94858;-66
2021/12/01 11:09:08;;;;;;;13.70;1.80;;;;;;;;;;5014839;28;92418;-66
2021/12/01 11:11:36;;;;;;;10.63;1.60;;;;;;;;;;5015224;28;92485;-66
2021/12/01 11:14:23;;;;;;;12.27;1.98;;;;;;;;;;5015554;28;93143;-66
2021/12/01 11:16:49;;;;;;;9.85;1.83;;;;;;;;;;5013604;28;92359;-66
2021/12/01 11:19:16;;;;;;;13.52;2.60;;;;;;;;;;5015291;28;92462;-66
2021/12/01 11:21:42;;;;;;;11.68;1.88;;;;;;;;;;5015582;28;92404;-66
2021/12/01 11:24:09;;;;;;;10.23;1.85;;;;;;;;;;5015617;28;91953;-66
2021/12/01 11:26:37;;;;;;;16.35;2.13;;;;;;;;;;5014769;28;92801;-66
2021/12/01 11:29:17;;;;;;;14.63;2.65;;;;;;;;;;5017810;28;92302;-66
2021/12/01 11:31:44;;;;;;;13.55;1.90;;;;;;;;;;5013571;28;94663;-65
2021/12/01 11:34:12;;;;;;;11.80;2.22;;;;;;;;;;5015370;28;95429;-65
2021/12/01 11:36:40;;;;;;;21.23;2.15;;;;;;;;;;5014655;28;93772;-66
2021/12/01 11:39:10;;;;;;;12.90;2.05;;;;;;;;;;5014823;28;92570;-66
2021/12/01 11:41:42;;;;;;;18.30;2.10;;;;;;;;;;5015080;28;93068;-66
2021/12/01 11:44:10;;;;;;;15.13;2.30;;;;;;;;;;5015345;28;92226;-63
2021/12/01 11:46:37;;;;;;;9.50;1.77;;;;;;;;;;5014897;28;92459;-63
2021/12/01 11:49:10;;;;;;;9.25;1.75;;;;;;;;;;5017527;28;92225;-63
2021/12/01 11:51:40;;;;;;;17.10;2.35;;;;;;;;;;5013478;28;92521;-63
2021/12/01 11:54:08;;;;;;;10.93;1.77;;;;;;;;;;5014464;28;94164;-63
2021/12/01 11:56:35;;;;;;;15.20;1.88;;;;;;;;;;5013192;28;94692;-63
2021/12/01 11:59:04;;;;;;;20.75;2.15;;;;;;;;;;5015073;28;92510;-63
2021/12/01 12:01:31;;;;;;;12.32;2.00;;;;;;;;;;5014999;28;93371;-63
2021/12/01 12:04:00;;;;;;;13.98;3.05;;;;;;;;;;5014723;28;92382;-63
2021/12/01 12:06:30;;;;;;;16.42;2.55;;;;;;;;;;5014282;28;92375;-63
2021/12/01 12:09:01;;;;;;;13.43;1.92;;;;;;;;;;5014866;28;93208;-63
2021/12/01 12:11:27;;;;;;;;;;;;;;;;;;5018161;28;93901;-63
2021/12/01 12:14:01;;;;;;;13.93;2.83;;;;;;;;;;5015697;28;122072;-63
2021/12/01 12:16:27;;;;;;;14.25;2.70;;;;;;;;;;5014068;28;92331;-63
2021/12/01 12:18:53;;;;;;;17.73;2.10;;;;;;;;;;5014637;28;92367;-63
2021/12/01 12:21:46;;;;;;;9.95;1.75;;;;;;;;;;5012840;28;94793;-63
2021/12/01 12:24:09;;;;;;;12.52;2.08;;;;;;;;;;5013659;28;94625;-63
2021/12/01 12:26:36;;;;;;;17.58;2.60;;;;;;;;;;5014180;28;92624;-63
2021/12/01 12:29:07;;;;;;;14.93;2.22;;;;;;;;;;5013938;28;93105;-63
2021/12/01 12:31:33;;;;;;;13.43;1.60;;;;;;;;;;5014542;28;93366;-63
2021/12/01 12:34:03;;;;;;;9.55;2.00;;;;;;;;;;5017639;28;92702;-63
2021/12/01 12:36:35;;;;;;;17.92;2.47;;;;;;;;;;5013540;28;92395;-63
2021/12/01 12:39:10;;;;;;;9.70;1.95;;;;;;;;;;5015045;28;91942;-63
2021/12/01 12:41:52;;;;;;;12.20;2.13;;;;;;;;;;5014220;28;92567;-63
2021/12/01 12:44:28;;;;;;;16.13;2.05;;;;;;;;;;5014269;28;94513;-63
2021/12/01 12:47:11;;;;;;;18.33;2.03;;;;;;;;;;5004658;28;94912;-63
2021/12/01 12:49:38;;;;;;;14.50;1.63;;;;;;;;;;5014245;28;94073;-63
2021/12/01 12:52:23;;;;;;;9.50;2.47;;;;;;;;;;5013225;28;92369;-63
2021/12/01 12:54:49;;;;;;;7.35;1.70;;;;;;;;;;5013819;28;92405;-63
2021/12/01 12:57:16;;;;;;;11.82;1.77;;;;;;;;;;5016699;28;93325;-63
2021/12/01 12:59:43;;;;;;;11.48;1.65;;;;;;;;;;5014169;28;92497;-63
2021/12/01 13:02:10;;;;;;;11.60;2.15;;;;;;;;;;5013536;28;93403;-63
2021/12/01 13:04:49;;;;;;;10.70;1.65;;;;;;;;;;5014438;28;92622;-63
2021/12/01 13:07:34;;;;;;;13.43;1.80;;;;;;;;;;5013802;28;92453;-63
2021/12/01 13:10:05;;;;;;;9.82;1.60;;;;;;;;;;5014074;28;92414;-63
2021/12/01 13:12:50;;;;;;;8.43;1.58;;;;;;;;;;5012199;28;94797;-63
2021/12/01 13:15:19;;;;;;;9.48;1.85;;;;;;;;;;5012865;28;92292;-63
2021/12/01 13:17:50;;;;;;;14.88;1.92;;;;;;;;;;4996632;28;93084;-63
2021/12/01 13:20:17;;;;;;;5.75;1.20;;;;;;;;;;5000340;28;93951;-63
2021/12/01 13:22:58;;;;;;;9.75;2.00;;;;;;;;;;5004673;28;93627;-63
2021/12/01 13:25:24;;;;;;;15.75;2.22;;;;;;;;;;5016429;28;93510;-63
2021/12/01 13:27:51;;;;;;;25.08;2.58;;;;;;;;;;5016033;28;92635;-63
2021/12/01 13:30:17;;;;;;;12.88;2.28;;;;;;;;;;5017597;28;92029;-63
2021/12/01 13:32:44;;;;;;;11.55;1.65;;;;;;;;;;5016693;28;93338;-63
2021/12/01 13:35:10;;;;;;;9.93;1.90;;;;;;;;;;5017072;28;92336;-63
2021/12/01 13:37:37;;;;;;;16.98;1.90;;;;;;;;;;5014312;28;94862;-63
2021/12/01 13:40:10;;;;;;;21.33;2.88;;;;;;;;;;5015032;28;94971;-63
2021/12/01 13:42:37;;;;;;;12.15;1.92;;;;;;;;;;5019962;28;92321;-63
2021/12/01 13:45:03;;;;;;;23.23;2.92;;;;;;;;;;5016667;28;92523;-63
2021/12/01 13:47:31;;;;;;;16.58;2.50;;;;;;;;;;5015476;28;92500;-63
2021/12/01 13:50:02;;;;;;;12.15;2.50;;;;;;;;;;5017012;28;93148;-63
2021/12/01 13:52:33;;;;;;;15.73;2.03;;;;;;;;;;5016324;28;92317;-63
2021/12/01 13:55:16;;;;;;;23.40;2.30;;;;;;;;;;5015389;28;91695;-63
2021/12/01 13:57:43;;;;;;;15.98;2.47;;;;;;;;;;5017155;28;93704;-63
2021/12/01 14:00:10;;;;;;;21.95;2.60;;;;;;;;;;5001884;28;94408;-63
2021/12/01 14:02:37;;;;;;;13.55;2.22;;;;;;;;;;5003895;28;94632;-63
2021/12/01 14:05:04;;;;;;;14.63;2.35;;;;;;;;;;5016509;28;94465;-63
2021/12/01 14:07:39;;;;;;;11.32;2.55;;;;;;;;;;5016046;28;92590;-63
2021/12/01 14:10:06;;;;;;;26.33;2.88;;;;;;;;;;5016545;28;93332;-63
2021/12/01 14:12:45;;;;;;;16.35;2.60;;;;;;;;;;5016077;28;92303;-63
2021/12/01 14:15:11;;;;;;;16.38;2.75;;;;;;;;;;5016173;28;92477;-63
2021/12/01 14:17:58;;;;;;;13.90;2.40;;;;;;;;;;5016161;28;94848;-62
2021/12/01 14:20:25;;;;;;;15.65;2.40;;;;;;;;;;5016780;28;91683;-63
2021/12/01 14:22:52;;;;;;;17.77;2.25;;;;;;;;;;5016296;28;92716;-63
2021/12/01 14:25:20;;;;;;;18.15;3.38;;;;;;;;;;5018695;28;93594;-63
2021/12/01 14:27:48;;;;;;;10.18;2.55;;;;;;;;;;5002153;28;94863;-63
2021/12/01 14:30:17;;;;;;;7.72;1.40;;;;;;;;;;5010845;28;94333;-63
2021/12/01 14:32:45;;;;;;;8.07;1.38;;;;;;;;;;5014798;28;92465;-63
2021/12/01 14:35:13;;;;;;;11.38;1.60;;;;;;;;;;5016035;28;92472;-63
2021/12/01 14:37:39;;;;;;;12.15;1.58;;;;;;;;;;5015467;28;94585;-63
2021/12/01 14:40:06;;;;;;;12.68;1.95;;;;;;;;;;5015074;28;94686;-63
2021/12/01 14:42:32;;;;;;;13.40;2.03;;;;;;;;;;5015999;28;92442;-63
2021/12/01 14:45:03;;;;;;;18.38;2.25;;;;;;;;;;5016676;28;93544;-63
2021/12/01 14:47:29;;;;;;;;;;;;;;;;;;5016204;28;94959;-63